Latest Coastal Weather Observations for Hobart

IDT60701

Issued at 12:32 am EDT Tuesday 21 November 2017 (issued every 10 minutes, with the page automatically refreshed every 10 minutes)

About coastal observations | Map of coastal stations | Coastal observations for TAS | Marine services | Other Formats
Station Details ID: 094029 Name: HOBART (ELLERSLIE ROAD) Lat: -42.89 Lon: 147.33 Height: 50.5 m
Data from the previous 72 hours. | See also: Recent months at Hobart
Date/Time
EDT
Temp
°C
Wind Pressure Rain since
9am
mm
Weather Cloud Vis
km
Sea
Height
m
Swell
Dir  Spd
kts
Gust
kts
hPa Trend Height
m
Period
s
Dir
21/12:30am 17.4 NW 5 9 1022.7 - 0.0 - - - - - - -
21/12:00am 17.5 N 3 5 1022.9 - 0.0 - - - - - - -
 
Date/Time
EDT
Temp
°C
Wind Pressure Rain since
9am
mm
Weather Cloud Vis
km
Sea
Height
m
Swell
Dir  Spd
kts
Gust
kts
hPa Trend Height
m
Period
s
Dir
20/11:30pm 17.3 CALM 0 3 1023.1 - 0.0 - - - - - - -
20/11:00pm 17.6 N 3 4 1023.3 - 0.0 - - - - - - -
20/10:30pm 17.6 NNW 1 4 1023.4 - 0.0 - - - - - - -
20/10:00pm 18.3 ENE 4 6 1023.5 - 0.0 - - - - - - -
20/09:30pm 18.6 ESE 7 9 1023.4 - 0.0 - - - - - - -
20/09:00pm 19.4 SE 5 8 1023.2 - 0.0 - - - - - - -
20/08:30pm 19.7 SE 8 11 1023.1 - 0.0 - - - - - - -
20/08:00pm 20.1 ESE 7 10 1022.9 - 0.0 - - - - - - -
20/07:30pm 20.8 ESE 9 12 1022.7 - 0.0 - - - - - - -
20/07:00pm 21.3 ESE 8 11 1022.7 - 0.0 - - - - - - -
20/06:30pm 22.2 SE 11 14 1022.7 - 0.0 - - - - - - -
20/06:00pm 22.7 SE 10 13 1022.6 - 0.0 - - - - - - -
20/05:30pm 23.9 SSE 10 13 1022.5 - 0.0 - - - - - - -
20/05:00pm 23.8 SSE 10 14 1022.5 - 0.0 - - - - - - -
20/04:30pm 23.8 SSE 10 15 1022.8 - 0.0 - - - - - - -
20/04:00pm 22.6 SE 9 13 1023.1 - 0.0 - - - - - - -
20/03:30pm 23.6 SE 9 14 1023.3 - 0.0 - - - - - - -
20/03:00pm 23.2 SSE 10 16 1023.4 - 0.0 - - - - - - -
20/02:30pm 23.3 SSE 12 18 1023.6 - 0.0 - - - - - - -
20/02:00pm 24.0 SE 14 18 1023.4 - 0.0 - - - - - - -
20/01:30pm 25.5 SE 13 18 1023.5 - 0.0 - - - - - - -
20/01:00pm 26.2 SE 10 14 1023.7 - 0.0 - - - - - - -
20/12:30pm 25.7 SE 10 13 1023.9 - 0.0 - - - - - - -
20/12:00pm 25.2 SE 10 13 1024.2 - 0.0 - - - - - - -
20/11:30am 24.3 ESE 8 12 1024.4 - 0.0 - - - - - - -
20/11:00am 24.5 ESE 6 8 1024.6 - 0.0 - - - - - - -
20/10:30am 23.8 ESE 6 7 1024.8 - 0.0 - - - - - - -
20/10:00am 24.2 E 4 7 1024.8 - 0.0 - - - - - - -
20/09:30am 24.3 NW 7 9 1025.1 - 0.0 - - - - - - -
20/09:00am 22.5 NW 9 12 1025.1 - 0.0 - - - - - - -
20/08:30am 21.3 NNW 7 12 1025.2 - 0.0 - - - - - - -
20/08:00am 20.4 WNW 11 14 1025.2 - 0.0 - - - - - - -
20/07:30am 19.1 WNW 8 13 1024.9 - 0.0 - - - - - - -
20/07:00am 18.4 WNW 7 11 1024.9 - 0.0 - - - - - - -
20/06:30am 17.0 W 6 9 1024.7 - 0.0 - - - - - - -
20/06:00am 16.1 WNW 6 8 1024.6 - 0.0 - - - - - - -
20/05:30am 15.9 WNW 5 8 1024.3 - 0.0 - - - - - - -
20/05:00am 15.7 W 5 6 1024.1 - 0.0 - - - - - - -
20/04:30am 16.2 W 5 8 1023.8 - 0.0 - - - - - - -
20/04:00am 16.6 WNW 6 9 1023.9 - 0.0 - - - - - - -
20/03:30am 16.8 WNW 6 10 1023.9 - 0.0 - - - - - - -
20/03:00am 16.7 WNW 6 9 1023.7 - 0.0 - - - - - - -
20/02:30am 16.1 WNW 5 6 1023.6 - 0.0 - - - - - - -
20/02:00am 16.2 WNW 4 5 1023.7 - 0.0 - - - - - - -
20/01:30am 16.4 WNW 1 3 1023.8 - 0.0 - - - - - - -
20/01:00am 16.8 WSW 4 6 1023.9 - 0.0 - - - - - - -
20/12:30am 17.1 W 1 5 1024.0 - 0.0 - - - - - - -
20/12:00am 17.6 CALM 0 3 1024.1 - 0.0 - - - - - - -
 
Date/Time
EDT
Temp
°C
Wind Pressure Rain since
9am
mm
Weather Cloud Vis
km
Sea
Height
m
Swell
Dir  Spd
kts
Gust
kts
hPa Trend Height
m
Period
s
Dir
19/11:30pm 17.7 N 3 4 1024.3 - 0.0 - - - - - - -
19/11:00pm 18.3 CALM 0 0 1024.2 - 0.0 - - - - - - -
19/10:30pm 18.9 SE 1 4 1024.3 - 0.0 - - - - - - -
19/10:00pm 19.5 CALM 0 0 1024.1 - 0.0 - - - - - - -
19/09:30pm 20.2 SSE 3 5 1024.0 - 0.0 - - - - - - -
19/09:00pm 20.7 SSE 6 7 1023.7 - 0.0 - - - - - - -
19/08:30pm 21.1 S 8 11 1023.3 - 0.0 - - - - - - -
19/08:00pm 22.0 S 7 10 1022.9 - 0.0 - - - - - - -
19/07:30pm 22.4 SSE 8 12 1022.6 - 0.0 - - - - - - -
19/07:00pm 23.1 S 10 13 1022.5 - 0.0 - - - - - - -
19/06:30pm 23.1 SSE 12 15 1022.4 - 0.0 - - - - - - -
19/06:00pm 23.3 SSE 9 17 1022.2 - 0.0 - - - - - - -
19/05:30pm 23.8 SSE 9 13 1022.2 - 0.0 - - - - - - -
19/05:00pm 24.6 SSE 10 14 1022.3 - 0.0 - - - - - - -
19/04:30pm 24.5 SSE 10 15 1022.2 - 0.0 - - - - - - -
19/04:00pm 24.4 SE 11 16 1022.3 - 0.0 - - - - - - -
19/03:30pm 24.3 SE 12 17 1022.4 - 0.0 - - - - - - -
19/03:00pm 25.0 SE 11 17 1022.5 - 0.0 - - - - - - -
19/02:30pm 25.6 ESE 13 19 1022.6 - 0.0 - - - - - - -
19/02:00pm 26.5 SE 11 15 1022.6 - 0.0 - - - - - - -
19/01:30pm 26.3 SE 10 13 1022.7 - 0.0 - - - - - - -
19/01:00pm 26.1 ESE 9 12 1022.9 - 0.0 - - - - - - -
19/12:30pm 26.9 E 5 10 1023.1 - 0.0 - - - - - - -
19/12:00pm 26.3 ENE 6 9 1023.2 - 0.0 - - - - - - -
19/11:30am 26.0 NE 7 9 1023.4 - 0.0 - - - - - - -
19/11:00am 27.1 N 6 9 1023.4 - 0.0 - - - - - - -
19/10:30am 25.3 NW 9 14 1023.5 - 0.0 - - - - - - -
19/10:00am 23.9 NNW 11 16 1023.3 - 0.0 - - - - - - -
19/09:30am 23.2 NNW 13 20 1023.5 - 0.0 - - - - - - -
19/09:00am 22.7 NNW 11 17 1023.5 - 0.0 - - - - - - -
19/08:30am 21.3 NNW 12 19 1023.3 - 0.0 - - - - - - -
19/08:00am 20.5 NW 13 20 1023.1 - 0.0 - - - - - - -
19/07:30am 20.0 NW 11 20 1022.9 - 0.0 - - - - - - -
19/07:00am 19.6 WNW 7 14 1022.8 - 0.0 - - - - - - -
19/06:30am 18.0 WNW 9 15 1022.4 - 0.0 - - - - - - -
19/06:00am 17.3 NW 11 17 1022.0 - 0.0 - - - - - - -
19/05:30am 16.9 NW 13 18 1021.7 - 0.0 - - - - - - -
19/05:00am 17.2 NW 14 19 1021.4 - 0.0 - - - - - - -
19/04:30am 17.7 NW 13 19 1021.5 - 0.0 - - - - - - -
19/04:00am 17.8 NW 15 19 1021.5 - 0.0 - - - - - - -
19/03:30am 18.0 NW 12 16 1021.4 - 0.0 - - - - - - -
19/03:00am 18.1 NW 10 14 1021.5 - 0.0 - - - - - - -
19/02:30am 18.5 NW 11 16 1021.4 - 0.0 - - - - - - -
19/02:00am 18.7 NW 10 14 1021.4 - 0.0 - - - - - - -
19/01:30am 19.1 NW 10 14 1021.5 - 0.0 - - - - - - -
19/01:00am 19.2 NW 8 11 1021.6 - 0.0 - - - - - - -
19/12:30am 19.7 WNW 9 12 1021.5 - 0.0 - - - - - - -
19/12:00am 20.2 NW 9 13 1021.5 - 0.0 - - - - - - -
 
Date/Time
EDT
Temp
°C
Wind Pressure Rain since
9am
mm
Weather Cloud Vis
km
Sea
Height
m
Swell
Dir  Spd
kts
Gust
kts
hPa Trend Height
m
Period
s
Dir
18/11:30pm 19.7 WNW 5 6 1021.5 - 0.0 - - - - - - -
18/11:00pm 20.2 N 5 7 1021.4 - 0.0 - - - - - - -
18/10:30pm 20.6 NW 5 8 1021.6 - 0.0 - - - - - - -
18/10:00pm 21.3 N 7 10 1021.4 - 0.0 - - - - - - -
18/09:30pm 21.7 NNW 5 7 1021.2 - 0.0 - - - - - - -
18/09:00pm 22.1 N 7 11 1020.8 - 0.0 - - - - - - -
18/08:30pm 22.6 WNW 7 10 1020.4 - 0.0 - - - - - - -
18/08:00pm 23.1 NNE 4 7 1020.0 - 0.0 - - - - - - -
18/07:30pm 23.8 NE 8 13 1019.6 - 0.0 - - - - - - -
18/07:00pm 24.4 NE 10 15 1019.1 - 0.0 - - - - - - -
18/06:30pm 25.6 NE 12 19 1018.6 - 0.0 - - - - - - -
18/06:00pm 26.6 NNW 5 10 1018.4 - 0.0 - - - - - - -
18/05:30pm 28.6 N 7 12 1018.4 - 0.0 - - - - - - -
18/05:00pm 28.7 NNE 8 13 1018.6 - 0.0 - - - - - - -
18/04:30pm 29.1 NW 10 17 1018.8 - 0.0 - - - - - - -
18/04:00pm 29.0 N 9 16 1019.0 - 0.0 - - - - - - -
18/03:30pm 28.8 NW 10 16 1019.2 - 0.0 - - - - - - -
18/03:00pm 29.2 NW 10 16 1019.5 - 0.0 - - - - - - -
18/02:30pm 28.4 NNW 11 17 1019.8 - 0.0 - - - - - - -
18/02:00pm 28.4 NW 11 17 1020.0 - 0.0 - - - - - - -
18/01:30pm 27.7 NNW 11 17 1020.1 - 0.0 - - - - - - -
18/01:00pm 27.9 NNW 12 20 1020.4 - 0.0 - - - - - - -
18/12:30pm 27.2 NNW 12 18 1020.6 - 0.0 - - - - - - -
18/12:00pm 26.9 NW 15 23 1020.8 - 0.0 - - - - - - -
18/11:30am 25.5 NNW 14 19 1021.0 - 0.0 - - - - - - -
18/11:00am 25.0 NW 11 18 1021.3 - 0.0 - - - - - - -
18/10:30am 23.7 NW 10 15 1021.6 - 0.0 - - - - - - -
18/10:00am 23.0 NW 11 16 1021.7 - 0.0 - - - - - - -
18/09:30am 22.2 WNW 13 18 1021.9 - 0.0 - - - - - - -
18/09:00am 21.4 NW 11 17 1022.1 - 0.0 - - - - - - -
18/08:30am 20.6 NW 12 20 1022.1 - 0.0 - - - - - - -
18/08:00am 19.8 N 11 16 1021.9 - 0.0 - - - - - - -
18/07:30am 18.7 NNW 11 16 1021.9 - 0.0 - - - - - - -
18/07:00am 17.6 NNW 11 15 1022.0 - 0.0 - - - - - - -
18/06:30am 16.6 N 8 10 1022.0 - 0.0 - - - - - - -
18/06:00am 15.7 NNW 5 7 1021.7 - 0.0 - - - - - - -
18/05:30am 15.7 NNW 4 5 1021.5 - 0.0 - - - - - - -
18/05:00am 15.8 N 6 7 1021.3 - 0.0 - - - - - - -
18/04:30am 15.5 N 3 5 1021.2 - 0.0 - - - - - - -
18/04:00am 15.9 NNE 4 5 1021.4 - 0.0 - - - - - - -
18/03:30am 16.4 NNE 3 4 1021.3 - 0.0 - - - - - - -
18/03:00am 16.9 WNW 4 6 1021.6 - 0.0 - - - - - - -
18/02:30am 17.7 N 8 11 1021.4 - 0.0 - - - - - - -
18/02:00am 18.3 N 8 15 1021.6 - 0.0 - - - - - - -
18/01:30am 18.1 N 7 10 1021.5 - 0.0 - - - - - - -
18/01:00am 17.9 NNE 5 6 1021.4 - 0.0 - - - - - - -

Other Formats:

Comma delimited format used in spreadsheet applications
http://www.bom.gov.au/fwo/IDT60701/IDT60701.94970.axf

JavaScript Object Notation format (JSON) in row-major order
http://www.bom.gov.au/fwo/IDT60701/IDT60701.94970.json